Time;durP1;ratioP1;P1;durP2;ratioP2;P2;SDS_P1;SDS_P2;PMS_P1;PMS_P2;Temp;Humidity;BMP_temperature;BMP_pressure;BME280_temperature;BME280_humidity;BME280_pressure;Samples;Min_cycle;Max_cycle;Signal;HPM_P1;HPM_P2
2021/03/10 00:08:27;;;;;;;0.60;0.60;;;2.70;99.90;;;;;;4801624;29;20217;-87
2021/03/10 00:11:18;;;;;;;0.60;0.60;;;3.20;99.90;;;;;;4807708;29;20217;-87
2021/03/10 00:14:44;;;;;;;0.50;0.50;;;2.20;99.90;;;;;;4859125;29;20199;-86
2021/03/10 00:17:10;;;;;;;0.60;0.60;;;3.30;99.90;;;;;;4819833;29;20284;-86
2021/03/10 00:19:36;;;;;;;0.60;0.60;;;2.60;99.90;;;;;;4832784;29;20247;-87
2021/03/10 00:22:03;;;;;;;0.60;0.60;;;4.40;99.90;;;;;;4859699;29;20218;-87
2021/03/10 00:24:30;;;;;;;0.60;0.60;;;2.70;99.90;;;;;;4859140;29;20210;-86
2021/03/10 00:26:57;;;;;;;0.60;0.60;;;3.30;99.90;;;;;;4858921;29;20211;-87
2021/03/10 00:29:23;;;;;;;0.60;0.60;;;2.70;99.90;;;;;;4858410;29;20525;-87
2021/03/10 00:31:50;;;;;;;0.57;0.57;;;2.90;99.90;;;;;;4858604;29;20211;-86
2021/03/10 00:34:16;;;;;;;0.60;0.60;;;2.70;99.90;;;;;;4858819;29;20244;-86
2021/03/10 00:36:42;;;;;;;0.50;0.50;;;3.60;99.90;;;;;;4858403;29;20736;-86
2021/03/10 00:39:09;;;;;;;0.60;0.60;;;4.10;99.90;;;;;;4858779;29;20214;-86
2021/03/10 00:41:37;;;;;;;0.55;0.55;;;2.60;99.90;;;;;;4858501;29;20215;-87
2021/03/10 00:44:03;;;;;;;0.50;0.50;;;4.50;99.90;;;;;;4858770;29;20311;-87
2021/03/10 00:46:32;;;;;;;0.60;0.60;;;2.70;99.90;;;;;;4858332;29;20203;-87
2021/03/10 00:52:31;;;;;;;0.55;0.55;;;2.90;99.90;;;;;;4848867;29;20411;-87
2021/03/10 03:29:46;;;;;;;0.50;0.50;;;1.40;99.90;;;;;;4667435;30;20321;-86
2021/03/10 03:36:03;;;;;;;;;;;;;;;;;;;;;
2021/03/10 03:56:49;;;;;;;0.60;0.60;;;2.80;99.90;;;;;;4683359;30;20209;-86
2021/03/10 04:06:18;;;;;;;0.60;0.60;;;2.00;99.90;;;;;;4661602;30;20210;-86
2021/03/10 04:08:45;;;;;;;0.60;0.60;;;1.10;99.90;;;;;;4662470;30;20242;-86
2021/03/10 04:11:13;;;;;;;0.60;0.60;;;1.20;99.90;;;;;;4674155;30;20423;-86
2021/03/10 04:13:43;;;;;;;0.50;0.50;;;1.00;99.90;;;;;;4796817;29;20216;-86
2021/03/10 04:19:15;;;;;;;0.50;0.50;;;1.20;99.90;;;;;;4820437;29;20212;-86
2021/03/10 04:21:51;;;;;;;0.60;0.60;;;1.20;99.90;;;;;;4820073;29;20216;-85
2021/03/10 04:24:18;;;;;;;0.60;0.60;;;1.20;99.90;;;;;;4820469;29;20208;-86
2021/03/10 04:26:48;;;;;;;0.57;0.57;;;1.30;99.90;;;;;;4820373;29;20221;-86
2021/03/10 04:29:23;;;;;;;0.50;0.50;;;1.30;99.90;;;;;;4828598;29;20236;-86
2021/03/10 04:32:05;;;;;;;0.60;0.60;;;1.20;99.90;;;;;;4838302;29;20599;-87
2021/03/10 04:34:37;;;;;;;0.60;0.60;;;1.60;99.90;;;;;;4838470;29;20219;-86
2021/03/10 04:37:07;;;;;;;0.60;0.60;;;0.90;99.90;;;;;;4838284;29;20239;-86
2021/03/10 04:39:44;;;;;;;0.50;0.50;;;1.30;99.90;;;;;;4837882;29;20216;-86
2021/03/10 04:42:15;;;;;;;0.60;0.60;;;1.10;99.90;;;;;;4837799;29;20220;-86
2021/03/10 04:44:46;;;;;;;0.60;0.60;;;1.60;99.90;;;;;;4837704;29;20212;-86
2021/03/10 04:47:21;;;;;;;0.60;0.60;;;0.90;99.90;;;;;;4838059;29;20203;-86
2021/03/10 04:50:04;;;;;;;0.60;0.60;;;1.00;99.90;;;;;;4837987;29;20215;-87
2021/03/10 04:52:51;;;;;;;0.60;0.60;;;0.40;99.90;;;;;;4837919;29;20254;-86
2021/03/10 04:55:35;;;;;;;0.60;0.60;;;0.40;99.90;;;;;;4838152;29;20215;-86
2021/03/10 04:58:21;;;;;;;0.50;0.50;;;-0.20;99.90;;;;;;4837645;29;20231;-87
2021/03/10 05:01:56;;;;;;;0.60;0.60;;;2.10;99.90;;;;;;4837554;29;20215;-87
2021/03/10 05:04:41;;;;;;;0.60;0.60;;;0.70;99.90;;;;;;4836805;29;20223;-86
2021/03/10 05:11:07;;;;;;;0.60;0.60;;;0.50;99.90;;;;;;4810907;29;20231;-87
2021/03/10 05:34:00;;;;;;;0.60;0.60;;;0.60;99.90;;;;;;4781775;30;20732;-86
2021/03/10 05:36:57;;;;;;;0.60;0.60;;;0.60;99.90;;;;;;4783105;30;20245;-86
2021/03/10 05:39:54;;;;;;;0.60;0.60;;;0.40;99.90;;;;;;4838046;29;20209;-86
2021/03/10 05:42:44;;;;;;;0.60;0.60;;;0.40;99.90;;;;;;4837317;29;20253;-85
2021/03/10 05:45:35;;;;;;;0.60;0.60;;;1.70;99.90;;;;;;4837247;29;20238;-85
2021/03/10 06:02:19;;;;;;;0.60;0.60;;;0.60;99.90;;;;;;4685203;30;20251;-86
2021/03/10 06:12:24;;;;;;;0.60;0.60;;;1.20;99.90;;;;;;4725961;30;20293;-86
2021/03/10 06:18:09;;;;;;;0.60;0.60;;;-0.40;99.90;;;;;;4750141;30;20786;-87
2021/03/10 06:25:18;;;;;;;0.60;0.60;;;0.90;99.90;;;;;;4734151;30;20689;-86
2021/03/10 06:32:14;;;;;;;0.50;0.50;;;0.40;99.90;;;;;;4627650;30;20253;-86
2021/03/10 06:42:14;;;;;;;0.60;0.60;;;0.40;99.90;;;;;;4720955;30;20222;-87
2021/03/10 06:44:50;;;;;;;0.55;0.55;;;0.30;99.90;;;;;;4724961;30;20590;-84
2021/03/10 06:47:34;;;;;;;0.60;0.60;;;1.90;99.90;;;;;;4765071;30;20750;-87
2021/03/10 06:50:02;;;;;;;0.60;0.60;;;0.40;99.90;;;;;;4763024;30;20600;-87
2021/03/10 06:52:31;;;;;;;0.60;0.60;;;2.00;99.90;;;;;;4765881;30;20222;-85
2021/03/10 06:55:05;;;;;;;0.60;0.60;;;0.90;99.90;;;;;;4771521;29;20306;-86
2021/03/10 06:57:43;;;;;;;0.60;0.60;;;0.90;99.90;;;;;;4830902;29;20243;-86
2021/03/10 07:00:50;;;;;;;0.60;0.60;;;2.50;99.90;;;;;;4838659;29;20784;-87
2021/03/10 07:03:17;;;;;;;0.60;0.60;;;1.60;99.90;;;;;;4840348;29;20207;-87
2021/03/10 07:05:44;;;;;;;0.60;0.60;;;0.90;99.90;;;;;;4839243;29;20224;-87
2021/03/10 07:08:42;;;;;;;0.60;0.60;;;1.40;99.90;;;;;;4839591;29;20220;-87
2021/03/10 07:11:54;;;;;;;0.57;0.57;;;0.30;99.90;;;;;;4837318;29;20203;-88
2021/03/10 07:28:06;;;;;;;0.60;0.60;;;1.50;99.90;;;;;;4821227;29;20199;-87
2021/03/10 07:34:24;;;;;;;0.50;0.50;;;2.00;99.90;;;;;;4862317;23;20271;-79
2021/03/10 07:36:51;;;;;;;0.60;0.60;;;2.20;99.90;;;;;;4897984;29;20238;-80
2021/03/10 07:39:23;;;;;;;0.60;0.60;;;2.20;99.90;;;;;;4913044;29;20248;-79
2021/03/10 07:41:49;;;;;;;0.60;0.60;;;2.40;99.90;;;;;;4912884;29;20217;-80
2021/03/10 07:44:18;;;;;;;0.60;0.60;;;2.40;99.90;;;;;;4912082;29;20216;-79
2021/03/10 07:46:44;;;;;;;0.60;0.60;;;2.50;99.90;;;;;;4897220;29;20205;-80
2021/03/10 07:49:23;;;;;;;0.60;0.60;;;2.50;99.90;;;;;;4912751;29;20290;-79
2021/03/10 07:51:50;;;;;;;0.60;0.60;;;2.50;99.90;;;;;;4912447;29;20280;-81
2021/03/10 07:54:23;;;;;;;0.60;0.60;;;2.50;99.90;;;;;;5096422;23;20241;-80
2021/03/10 07:56:50;;;;;;;0.57;0.57;;;2.50;99.90;;;;;;4923462;29;20209;-81
2021/03/10 07:59:18;;;;;;;0.50;0.50;;;2.50;99.90;;;;;;4918095;29;20236;-79
2021/03/10 08:01:44;;;;;;;0.50;0.50;;;2.60;99.90;;;;;;4911869;29;20201;-79
2021/03/10 08:04:13;;;;;;;0.60;0.60;;;2.60;99.90;;;;;;4913562;29;20260;-79
2021/03/10 08:06:45;;;;;;;0.60;0.60;;;2.70;99.90;;;;;;4912877;29;20213;-79
2021/03/10 08:09:12;;;;;;;0.50;0.50;;;2.70;99.90;;;;;;4913193;29;20208;-79
2021/03/10 08:11:43;;;;;;;0.50;0.50;;;2.70;99.90;;;;;;4913437;29;20642;-80
2021/03/10 08:14:10;;;;;;;0.50;0.50;;;2.80;99.90;;;;;;4912636;29;20209;-78
2021/03/10 08:16:47;;;;;;;0.60;0.60;;;2.80;99.90;;;;;;4911873;29;20216;-78
2021/03/10 08:19:19;;;;;;;0.50;0.50;;;2.90;99.90;;;;;;4913138;29;20582;-79
2021/03/10 08:21:50;;;;;;;0.60;0.60;;;3.00;99.90;;;;;;4913388;29;20209;-79
2021/03/10 08:24:17;;;;;;;0.60;0.60;;;3.10;99.90;;;;;;4912984;29;20213;-79
2021/03/10 08:26:47;;;;;;;0.60;0.60;;;3.20;99.90;;;;;;4912336;29;20204;-79
2021/03/10 08:29:14;;;;;;;0.60;0.60;;;3.20;99.90;;;;;;4913742;29;20205;-79
2021/03/10 08:31:48;;;;;;;0.55;0.55;;;3.30;99.90;;;;;;4912760;29;20213;-79
2021/03/10 08:34:15;;;;;;;0.60;0.60;;;3.30;99.90;;;;;;4913685;29;20726;-79
2021/03/10 08:36:42;;;;;;;0.60;0.60;;;3.30;99.90;;;;;;4913473;29;20575;-78
2021/03/10 08:39:11;;;;;;;0.60;0.60;;;3.30;99.90;;;;;;4913347;29;20209;-78
2021/03/10 08:41:45;;;;;;;0.50;0.50;;;3.40;99.90;;;;;;4906132;29;20752;-79
2021/03/10 08:44:11;;;;;;;0.50;0.50;;;3.40;99.90;;;;;;4905951;29;20216;-79
2021/03/10 08:46:41;;;;;;;0.60;0.60;;;3.50;99.90;;;;;;4913028;29;20676;-79
2021/03/10 08:49:32;;;;;;;0.60;0.60;;;3.60;99.90;;;;;;4913298;29;20842;-79
2021/03/10 08:52:12;;;;;;;0.57;0.57;;;3.70;99.90;;;;;;4893905;29;20352;-78
2021/03/10 08:54:51;;;;;;;0.60;0.60;;;3.70;99.90;;;;;;4910544;29;20272;-78
2021/03/10 08:57:19;;;;;;;0.60;0.60;;;3.80;99.90;;;;;;4913519;29;20228;-79
2021/03/10 08:59:45;;;;;;;0.60;0.60;;;3.80;99.90;;;;;;4911632;29;20296;-79
2021/03/10 09:02:11;;;;;;;0.50;0.50;;;3.80;99.90;;;;;;4912110;29;20205;-79
2021/03/10 09:04:43;;;;;;;0.60;0.60;;;3.90;99.90;;;;;;4912727;29;20239;-79
2021/03/10 09:07:09;;;;;;;0.60;0.60;;;3.90;99.90;;;;;;4912990;29;20225;-79
2021/03/10 09:09:36;;;;;;;0.50;0.50;;;3.90;99.90;;;;;;4912785;29;20217;-79
2021/03/10 09:12:04;;;;;;;0.50;0.50;;;4.00;99.90;;;;;;4913399;29;20208;-79
2021/03/10 09:14:30;;;;;;;0.60;0.60;;;4.10;99.90;;;;;;4913518;29;20216;-83
2021/03/10 09:16:58;;;;;;;0.60;0.60;;;4.20;99.90;;;;;;4913383;29;20237;-80
2021/03/10 09:19:32;;;;;;;0.60;0.60;;;4.20;99.90;;;;;;4915099;29;20417;-80
2021/03/10 09:25:18;;;;;;;0.60;0.60;;;6.10;99.90;;;;;;5363310;23;21060;-80
2021/03/10 09:28:00;;;;;;;0.60;0.60;;;4.00;99.90;;;;;;4960544;23;20304;-79
2021/03/10 09:30:34;;;;;;;0.60;0.60;;;4.70;99.90;;;;;;4924717;29;20202;-80
2021/03/10 09:33:18;;;;;;;0.60;0.60;;;4.60;99.90;;;;;;4929160;29;20208;-80
2021/03/10 09:35:52;;;;;;;0.60;0.60;;;4.80;99.90;;;;;;4925540;29;20233;-81
2021/03/10 09:38:19;;;;;;;0.60;0.60;;;4.20;99.90;;;;;;4964115;23;20261;-80
2021/03/10 09:40:50;;;;;;;0.60;0.60;;;4.60;99.90;;;;;;4884487;29;20220;-79
2021/03/10 09:43:19;;;;;;;0.60;0.60;;;4.70;99.90;;;;;;4902439;29;20305;-81
2021/03/10 09:45:47;;;;;;;0.60;0.60;;;4.80;99.90;;;;;;4887208;29;20249;-81
2021/03/10 09:51:16;;;;;;;0.52;0.52;;;5.00;99.90;;;;;;5411450;23;20441;-80
2021/03/10 09:53:44;;;;;;;0.50;0.50;;;7.10;99.90;;;;;;4978436;23;20279;-80
2021/03/10 10:29:24;;;;;;;0.60;0.60;;;5.10;99.90;;;;;;4667282;30;20293;-87
2021/03/10 10:32:17;;;;;;;0.60;0.60;;;5.90;99.90;;;;;;4667485;30;20312;-87
2021/03/10 10:35:35;;;;;;;0.55;0.55;;;7.00;99.90;;;;;;4663684;30;20218;-86
2021/03/10 10:38:33;;;;;;;;;;;;;;;;;;;;;
2021/03/10 10:52:08;;;;;;;0.60;0.60;;;5.20;99.90;;;;;;4615856;30;20231;-88
2021/03/10 10:55:59;;;;;;;0.60;0.60;;;6.90;99.90;;;;;;4721702;30;20230;-87
2021/03/10 11:09:29;;;;;;;;;;;;;;;;;;;;;
2021/03/10 11:12:12;;;;;;;0.50;0.50;;;5.70;99.90;;;;;;4669079;30;20231;-87
2021/03/10 11:24:13;;;;;;;0.52;0.52;;;7.50;99.90;;;;;;4706380;30;20293;-86
2021/03/10 11:26:49;;;;;;;0.60;0.60;;;6.40;99.90;;;;;;4782248;29;20626;-87
2021/03/10 11:35:48;;;;;;;0.60;0.60;;;7.00;99.90;;;;;;4773266;29;20316;-87
2021/03/10 11:38:31;;;;;;;0.60;0.60;;;6.90;99.90;;;;;;4820572;29;20235;-86
2021/03/10 11:44:28;;;;;;;0.60;0.60;;;6.90;99.90;;;;;;4855214;29;20211;-87
2021/03/10 11:47:20;;;;;;;0.55;0.55;;;7.00;99.90;;;;;;4878416;29;20675;-86
2021/03/10 11:50:11;;;;;;;0.50;0.50;;;6.90;99.90;;;;;;4828921;29;20667;-88
2021/03/10 11:52:48;;;;;;;0.50;0.50;;;6.60;99.90;;;;;;4876265;29;20249;-86
2021/03/10 11:55:19;;;;;;;0.60;0.60;;;6.40;99.90;;;;;;4879958;29;20751;-87
2021/03/10 11:57:52;;;;;;;0.60;0.60;;;6.30;99.90;;;;;;4878114;29;20241;-86
2021/03/10 12:00:45;;;;;;;0.60;0.60;;;7.00;99.90;;;;;;4892912;29;20240;-86
2021/03/10 12:03:26;;;;;;;0.60;0.60;;;6.60;99.90;;;;;;4897594;29;20210;-86
2021/03/10 12:06:05;;;;;;;0.60;0.60;;;6.60;99.90;;;;;;4890486;29;20225;-86
2021/03/10 12:09:34;;;;;;;0.60;0.60;;;6.90;99.90;;;;;;4897171;29;20650;-86
2021/03/10 12:12:06;;;;;;;0.60;0.60;;;7.00;99.90;;;;;;4891509;29;20216;-86
2021/03/10 12:14:36;;;;;;;0.60;0.60;;;6.90;99.90;;;;;;4888660;29;20218;-86
2021/03/10 12:17:34;;;;;;;0.60;0.60;;;7.30;99.90;;;;;;4890229;29;20277;-88
2021/03/10 12:20:29;;;;;;;0.60;0.60;;;6.90;99.90;;;;;;4888155;29;20215;-86
2021/03/10 12:23:05;;;;;;;0.60;0.60;;;7.30;99.90;;;;;;4891281;29;20206;-86
2021/03/10 12:25:34;;;;;;;0.60;0.60;;;7.00;99.90;;;;;;4894844;29;20245;-87
2021/03/10 12:28:04;;;;;;;0.60;0.60;;;7.50;99.90;;;;;;4890884;29;20216;-87
2021/03/10 12:33:56;;;;;;;0.60;0.60;;;6.90;99.90;;;;;;4887292;29;20296;-86
2021/03/10 12:36:46;;;;;;;0.60;0.60;;;8.70;99.90;;;;;;4892979;29;20224;-87
2021/03/10 12:39:13;;;;;;;0.60;0.60;;;6.90;99.90;;;;;;4859079;29;20226;-85
2021/03/10 12:41:39;;;;;;;0.50;0.50;;;7.10;99.90;;;;;;4889769;29;20301;-85
2021/03/10 12:44:06;;;;;;;0.60;0.60;;;6.90;99.90;;;;;;4890412;29;20218;-84
2021/03/10 12:46:32;;;;;;;0.60;0.60;;;7.30;99.90;;;;;;4901497;29;20217;-84
2021/03/10 12:49:39;;;;;;;0.60;0.60;;;6.80;99.90;;;;;;4894173;29;20672;-88
2021/03/10 12:59:12;;;;;;;;;;;;;;;;;;;;;
2021/03/10 13:04:54;;;;;;;0.60;0.60;;;7.60;99.90;;;;;;4884965;29;20241;-86
2021/03/10 13:08:10;;;;;;;0.60;0.60;;;6.20;99.90;;;;;;4894586;29;20212;-87
2021/03/10 13:11:27;;;;;;;0.60;0.60;;;7.60;99.90;;;;;;4800457;29;20225;-86
2021/03/10 13:13:53;;;;;;;0.60;0.60;;;7.30;99.90;;;;;;4802618;29;20300;-87
2021/03/10 13:16:25;;;;;;;0.60;0.60;;;7.00;99.90;;;;;;4894698;29;20559;-86
2021/03/10 13:19:11;;;;;;;0.60;0.60;;;8.10;99.90;;;;;;4897589;29;20233;-86
2021/03/10 13:21:46;;;;;;;0.60;0.60;;;9.60;99.90;;;;;;4893750;29;20214;-86
2021/03/10 13:27:29;;;;;;;0.60;0.60;;;9.50;99.90;;;;;;4893260;29;20206;-86
2021/03/10 13:30:23;;;;;;;0.60;0.60;;;8.50;99.90;;;;;;4894457;29;20229;-86
2021/03/10 13:32:56;;;;;;;0.60;0.60;;;8.30;99.90;;;;;;4887621;29;20909;-86
2021/03/10 13:35:51;;;;;;;0.60;0.60;;;8.90;99.90;;;;;;4887797;29;20841;-87
2021/03/10 13:49:04;;;;;;;0.60;0.60;;;8.30;99.90;;;;;;4784035;30;20502;-88
2021/03/10 13:51:37;;;;;;;0.60;0.60;;;8.40;99.90;;;;;;4833797;29;20216;-87
2021/03/10 14:01:04;;;;;;;0.60;0.60;;;8.80;99.90;;;;;;4829430;29;20273;-88
2021/03/10 14:03:41;;;;;;;0.60;0.60;;;9.10;99.90;;;;;;4810490;29;20539;-87
2021/03/10 14:06:20;;;;;;;0.60;0.60;;;10.20;99.90;;;;;;4885026;29;20205;-87
2021/03/10 14:08:59;;;;;;;0.60;0.60;;;9.10;99.90;;;;;;4898315;29;20238;-88
2021/03/10 14:12:06;;;;;;;;;;;;;;;;;;;;;
2021/03/10 14:14:55;;;;;;;0.60;0.60;;;8.90;99.90;;;;;;4910290;29;20199;-87
2021/03/10 14:17:36;;;;;;;0.50;0.50;;;9.00;99.90;;;;;;4907616;29;20760;-86
2021/03/10 14:23:08;;;;;;;0.60;0.60;;;8.60;99.90;;;;;;4896871;29;20585;-87
2021/03/10 14:26:06;;;;;;;0.60;0.60;;;8.50;99.90;;;;;;4899757;29;20221;-87
2021/03/10 14:31:58;;;;;;;0.60;0.60;;;8.30;99.90;;;;;;4843943;29;20204;-87
2021/03/10 14:34:45;;;;;;;0.60;0.60;;;8.40;99.90;;;;;;4906324;29;20213;-87
2021/03/10 14:37:22;;;;;;;0.60;0.60;;;9.30;99.90;;;;;;4907088;29;20234;-87
2021/03/10 14:39:58;;;;;;;0.60;0.60;;;7.10;99.90;;;;;;4901348;29;20308;-87
2021/03/10 14:42:40;;;;;;;0.60;0.60;;;7.80;99.90;;;;;;4900937;29;20209;-88
2021/03/10 14:45:11;;;;;;;0.60;0.60;;;7.70;99.90;;;;;;4901525;29;20205;-88
2021/03/10 14:55:11;;;;;;;0.60;0.60;;;7.20;99.90;;;;;;4770382;30;20202;-89
2021/03/10 14:57:39;;;;;;;0.60;0.60;;;7.30;99.90;;;;;;4813009;29;20319;-87
2021/03/10 15:00:08;;;;;;;0.60;0.60;;;7.20;99.90;;;;;;4865211;29;20237;-88
2021/03/10 15:02:46;;;;;;;0.60;0.60;;;7.10;99.90;;;;;;4900694;29;20234;-89
2021/03/10 15:05:17;;;;;;;0.60;0.60;;;6.40;99.90;;;;;;4901290;29;20225;-88
2021/03/10 15:08:11;;;;;;;0.50;0.50;;;7.50;99.90;;;;;;4900723;29;20205;-89
2021/03/10 15:10:48;;;;;;;0.60;0.60;;;8.10;99.90;;;;;;4899866;29;20206;-89
2021/03/10 15:13:39;;;;;;;0.60;0.60;;;6.90;99.90;;;;;;4900906;29;20209;-88
2021/03/10 15:16:26;;;;;;;0.50;0.50;;;6.90;99.90;;;;;;4900425;29;20293;-88
2021/03/10 15:19:01;;;;;;;0.60;0.60;;;7.70;99.90;;;;;;4895165;29;20278;-88
2021/03/10 15:21:37;;;;;;;0.60;0.60;;;6.90;99.90;;;;;;4891581;29;20284;-88
2021/03/10 15:24:14;;;;;;;0.57;0.57;;;7.10;99.90;;;;;;4900668;29;20301;-88
2021/03/10 15:29:37;;;;;;;0.60;0.60;;;6.90;99.90;;;;;;4899479;29;20213;-88
2021/03/10 15:32:18;;;;;;;0.60;0.60;;;6.30;99.90;;;;;;4899999;29;20205;-88
2021/03/10 15:38:02;;;;;;;0.50;0.50;;;6.50;99.90;;;;;;4896980;29;20241;-90
2021/03/10 15:41:00;;;;;;;;;;;;;;;;;;;;;
2021/03/10 15:43:29;;;;;;;0.60;0.60;;;6.40;99.90;;;;;;4901061;29;20198;-88
2021/03/10 15:46:29;;;;;;;0.60;0.60;;;6.00;99.90;;;;;;4899714;29;20225;-88
2021/03/10 15:49:11;;;;;;;0.60;0.60;;;6.30;99.90;;;;;;4900097;29;20269;-88
2021/03/10 15:51:43;;;;;;;0.60;0.60;;;7.70;99.90;;;;;;4900467;29;20213;-89
2021/03/10 15:54:18;;;;;;;0.60;0.60;;;5.80;99.90;;;;;;4900700;29;20236;-89
2021/03/10 15:57:02;;;;;;;0.60;0.60;;;6.30;99.90;;;;;;4899771;29;20208;-89
2021/03/10 15:59:34;;;;;;;0.60;0.60;;;7.10;99.90;;;;;;4899559;29;21017;-88
2021/03/10 16:02:10;;;;;;;0.60;0.60;;;7.60;99.90;;;;;;4900100;29;20218;-88
2021/03/10 16:04:55;;;;;;;0.60;0.60;;;6.40;99.90;;;;;;4899801;29;20299;-89
2021/03/10 16:10:33;;;;;;;0.60;0.60;;;6.40;99.90;;;;;;4890146;29;20225;-89
2021/03/10 16:13:15;;;;;;;0.52;0.52;;;6.30;99.90;;;;;;4899932;29;20233;-89
2021/03/10 16:15:52;;;;;;;0.57;0.57;;;6.50;99.90;;;;;;4899464;29;20296;-90
2021/03/10 16:18:46;;;;;;;0.60;0.60;;;6.10;99.90;;;;;;4899308;29;20253;-89
2021/03/10 16:21:27;;;;;;;0.60;0.60;;;6.10;99.90;;;;;;4899026;29;20205;-88
2021/03/10 16:24:08;;;;;;;0.60;0.60;;;6.20;99.90;;;;;;4898368;29;20210;-88
2021/03/10 16:26:40;;;;;;;0.57;0.57;;;5.90;99.90;;;;;;4898630;29;20284;-87
2021/03/10 16:29:17;;;;;;;0.60;0.60;;;6.20;99.90;;;;;;4899767;29;20233;-88
2021/03/10 16:32:01;;;;;;;0.60;0.60;;;6.00;99.90;;;;;;4899584;29;20274;-89
2021/03/10 16:37:43;;;;;;;0.60;0.60;;;6.00;99.90;;;;;;4898376;29;20220;-88
2021/03/10 16:44:29;;;;;;;;;;;;;;;;;;;;;
2021/03/10 16:47:47;;;;;;;0.50;0.50;;;5.80;99.90;;;;;;4802510;29;20226;-88
2021/03/10 16:50:31;;;;;;;0.60;0.60;;;5.80;99.90;;;;;;4859202;29;20211;-88
2021/03/10 16:53:05;;;;;;;0.60;0.60;;;5.60;99.90;;;;;;4858955;29;20246;-87
2021/03/10 16:58:42;;;;;;;0.60;0.60;;;5.70;99.90;;;;;;4893906;29;20236;-89
2021/03/10 17:01:09;;;;;;;0.50;0.50;;;5.60;99.90;;;;;;4897953;29;20233;-88
2021/03/10 17:03:37;;;;;;;0.50;0.50;;;5.40;99.90;;;;;;4897742;29;20220;-88
2021/03/10 17:06:10;;;;;;;0.60;0.60;;;5.60;99.90;;;;;;4898113;29;20213;-89
2021/03/10 17:08:36;;;;;;;0.60;0.60;;;5.10;99.90;;;;;;4898541;29;20233;-87
2021/03/10 17:11:02;;;;;;;0.60;0.60;;;5.70;99.90;;;;;;4898379;29;20581;-88
2021/03/10 17:13:29;;;;;;;0.60;0.60;;;5.50;99.90;;;;;;4898771;29;20234;-87
2021/03/10 17:15:55;;;;;;;0.60;0.60;;;5.90;99.90;;;;;;4899147;29;20264;-88
2021/03/10 17:18:28;;;;;;;0.50;0.50;;;5.80;99.90;;;;;;4898613;29;20704;-88
2021/03/10 17:20:56;;;;;;;0.50;0.50;;;5.50;99.90;;;;;;4882509;29;20213;-88
2021/03/10 17:23:23;;;;;;;0.50;0.50;;;5.50;99.90;;;;;;4880307;29;20249;-88
2021/03/10 17:25:50;;;;;;;0.50;0.50;;;5.60;99.90;;;;;;4880083;29;20297;-88
2021/03/10 17:28:16;;;;;;;0.60;0.60;;;5.40;99.90;;;;;;4880491;29;20218;-88
2021/03/10 17:30:45;;;;;;;0.60;0.60;;;6.40;99.90;;;;;;4877060;29;20301;-86
2021/03/10 17:33:11;;;;;;;0.60;0.60;;;6.70;99.90;;;;;;4895497;29;20210;-86
2021/03/10 17:35:38;;;;;;;0.60;0.60;;;5.40;99.90;;;;;;4910289;29;20220;-86
2021/03/10 17:38:04;;;;;;;0.60;0.60;;;5.40;99.90;;;;;;4898016;29;20233;-86
2021/03/10 17:40:32;;;;;;;0.60;0.60;;;5.40;99.90;;;;;;4898106;29;20209;-85
2021/03/10 17:42:59;;;;;;;0.57;0.57;;;5.30;99.90;;;;;;4897729;29;20213;-86
2021/03/10 17:45:26;;;;;;;0.50;0.50;;;5.30;99.90;;;;;;4898402;29;20210;-86
2021/03/10 17:47:53;;;;;;;0.60;0.60;;;5.30;99.90;;;;;;4897920;29;20209;-85
2021/03/10 17:50:19;;;;;;;0.60;0.60;;;5.30;99.90;;;;;;4898480;29;20213;-85
2021/03/10 17:52:45;;;;;;;0.60;0.60;;;5.30;99.90;;;;;;4898102;29;20214;-84
2021/03/10 17:55:12;;;;;;;0.60;0.60;;;5.20;99.90;;;;;;4898161;29;20227;-86
2021/03/10 17:57:39;;;;;;;0.60;0.60;;;5.20;99.90;;;;;;4898058;29;20213;-85
2021/03/10 18:00:08;;;;;;;0.60;0.60;;;5.20;99.90;;;;;;4907425;29;20240;-85
2021/03/10 18:02:34;;;;;;;0.60;0.60;;;5.20;99.90;;;;;;4917504;29;20212;-86
2021/03/10 18:05:01;;;;;;;0.60;0.60;;;5.20;99.90;;;;;;4921366;29;20223;-85
2021/03/10 18:07:27;;;;;;;0.60;0.60;;;5.50;99.90;;;;;;4921207;29;20291;-85
2021/03/10 18:09:53;;;;;;;0.60;0.60;;;5.30;99.90;;;;;;4920956;29;20217;-85
2021/03/10 18:12:20;;;;;;;0.57;0.57;;;5.30;99.90;;;;;;4921163;29;20212;-85
2021/03/10 18:14:48;;;;;;;0.60;0.60;;;5.30;99.90;;;;;;4920922;29;20216;-87
2021/03/10 18:17:14;;;;;;;0.60;0.60;;;5.40;99.90;;;;;;4920841;29;20692;-85
2021/03/10 18:19:40;;;;;;;0.60;0.60;;;5.30;99.90;;;;;;4920800;29;20607;-86
2021/03/10 18:22:10;;;;;;;0.60;0.60;;;5.30;99.90;;;;;;4920992;29;20208;-85
2021/03/10 18:24:36;;;;;;;0.60;0.60;;;5.40;99.90;;;;;;4920806;29;20552;-85
2021/03/10 18:27:02;;;;;;;0.60;0.60;;;5.30;99.90;;;;;;4920438;29;20213;-85
2021/03/10 18:29:29;;;;;;;0.60;0.60;;;5.30;99.90;;;;;;4887852;29;20685;-86
2021/03/10 18:31:56;;;;;;;0.60;0.60;;;5.30;99.90;;;;;;4885951;29;20206;-86
2021/03/10 18:34:22;;;;;;;0.60;0.60;;;5.10;99.90;;;;;;4882858;29;20261;-85
2021/03/10 18:36:49;;;;;;;0.60;0.60;;;5.20;99.90;;;;;;4882804;29;20214;-85
2021/03/10 18:39:15;;;;;;;0.60;0.60;;;5.30;99.90;;;;;;4882875;29;20258;-86
2021/03/10 18:41:42;;;;;;;0.60;0.60;;;5.30;99.90;;;;;;4882961;29;20296;-85
2021/03/10 18:44:08;;;;;;;0.60;0.60;;;5.30;99.90;;;;;;4882282;29;20674;-85
2021/03/10 18:46:34;;;;;;;0.60;0.60;;;5.60;99.90;;;;;;4882347;29;20214;-85
2021/03/10 18:49:01;;;;;;;0.60;0.60;;;5.30;99.90;;;;;;4882093;29;20586;-85
2021/03/10 18:51:28;;;;;;;0.50;0.50;;;5.30;99.90;;;;;;4882059;29;20202;-85
2021/03/10 18:53:54;;;;;;;0.50;0.50;;;5.10;99.90;;;;;;4882661;29;20215;-85
2021/03/10 18:56:20;;;;;;;0.52;0.52;;;5.30;99.90;;;;;;4883321;29;20213;-84
2021/03/10 18:58:50;;;;;;;0.50;0.50;;;5.30;99.90;;;;;;4883078;29;20234;-85
2021/03/10 19:01:19;;;;;;;0.60;0.60;;;5.30;99.90;;;;;;4889763;29;20234;-85
2021/03/10 19:03:45;;;;;;;0.60;0.60;;;5.20;99.90;;;;;;4883251;29;20297;-85
2021/03/10 19:06:14;;;;;;;0.50;0.50;;;5.20;99.90;;;;;;4887808;29;20294;-85
2021/03/10 19:08:41;;;;;;;0.55;0.55;;;5.10;99.90;;;;;;4900335;29;20693;-86
2021/03/10 19:11:07;;;;;;;0.50;0.50;;;5.80;99.90;;;;;;4899376;29;20205;-85
2021/03/10 19:13:37;;;;;;;0.60;0.60;;;5.20;99.90;;;;;;4899692;29;20214;-85
2021/03/10 19:16:04;;;;;;;0.50;0.50;;;5.20;99.90;;;;;;4900453;29;20226;-86
2021/03/10 19:18:35;;;;;;;0.60;0.60;;;5.20;99.90;;;;;;4891081;29;20222;-86
2021/03/10 19:21:02;;;;;;;0.60;0.60;;;5.20;99.90;;;;;;4882752;29;20210;-85
2021/03/10 19:23:30;;;;;;;0.60;0.60;;;5.20;99.90;;;;;;4882683;29;20774;-85
2021/03/10 19:25:57;;;;;;;0.60;0.60;;;5.20;99.90;;;;;;4880992;29;20217;-85
2021/03/10 19:28:23;;;;;;;0.60;0.60;;;5.20;99.90;;;;;;4885888;29;20331;-85
2021/03/10 19:30:50;;;;;;;0.60;0.60;;;5.20;99.90;;;;;;4883976;29;20198;-85
2021/03/10 19:33:16;;;;;;;0.50;0.50;;;5.20;99.90;;;;;;4894715;29;20202;-85
2021/03/10 19:35:43;;;;;;;0.60;0.60;;;5.20;99.90;;;;;;4900145;29;20610;-85
2021/03/10 19:38:09;;;;;;;0.50;0.50;;;5.20;99.90;;;;;;4899842;29;21034;-85
2021/03/10 19:40:36;;;;;;;0.60;0.60;;;5.20;99.90;;;;;;4894579;29;20242;-86
2021/03/10 19:43:04;;;;;;;0.60;0.60;;;5.20;99.90;;;;;;4899111;29;20214;-85
2021/03/10 19:45:31;;;;;;;0.50;0.50;;;5.20;99.90;;;;;;4898557;29;20213;-85
2021/03/10 19:47:57;;;;;;;0.60;0.60;;;5.20;99.90;;;;;;4898727;29;20210;-84
2021/03/10 19:50:24;;;;;;;0.60;0.60;;;5.10;99.90;;;;;;4899461;29;20238;-85
2021/03/10 19:52:50;;;;;;;0.60;0.60;;;5.20;99.90;;;;;;4900174;29;20813;-85
2021/03/10 19:55:19;;;;;;;0.60;0.60;;;5.20;99.90;;;;;;4900085;29;20210;-85
2021/03/10 19:57:46;;;;;;;0.60;0.60;;;5.10;99.90;;;;;;4900441;29;20209;-85
2021/03/10 20:00:15;;;;;;;0.60;0.60;;;5.10;99.90;;;;;;4899713;29;20248;-85
2021/03/10 20:02:42;;;;;;;0.60;0.60;;;5.10;99.90;;;;;;4899122;29;20209;-85
2021/03/10 20:05:11;;;;;;;0.57;0.57;;;5.20;99.90;;;;;;4898636;29;20586;-84
2021/03/10 20:07:37;;;;;;;0.60;0.60;;;5.20;99.90;;;;;;4899081;29;20303;-85
2021/03/10 20:10:08;;;;;;;0.50;0.50;;;5.20;99.90;;;;;;4899993;29;20210;-86
2021/03/10 20:12:35;;;;;;;0.60;0.60;;;5.20;99.90;;;;;;4899117;29;20268;-85
2021/03/10 20:15:06;;;;;;;0.60;0.60;;;5.10;99.90;;;;;;4898635;29;20217;-85
2021/03/10 20:17:32;;;;;;;0.60;0.60;;;5.10;99.90;;;;;;4899249;29;20221;-86
2021/03/10 20:19:58;;;;;;;0.60;0.60;;;5.10;99.90;;;;;;4899183;29;20230;-85
2021/03/10 20:22:30;;;;;;;0.60;0.60;;;5.10;99.90;;;;;;4898736;29;20217;-85
2021/03/10 20:24:58;;;;;;;0.60;0.60;;;5.10;99.90;;;;;;4898107;29;20206;-87
2021/03/10 20:27:26;;;;;;;0.60;0.60;;;5.30;99.90;;;;;;4868640;29;20250;-86
2021/03/10 20:29:53;;;;;;;0.55;0.55;;;5.00;99.90;;;;;;4898219;29;20301;-86
2021/03/10 20:32:20;;;;;;;0.60;0.60;;;5.10;99.90;;;;;;4898038;29;20213;-86
2021/03/10 20:34:47;;;;;;;0.60;0.60;;;5.10;99.90;;;;;;4898748;29;20673;-85
2021/03/10 20:37:13;;;;;;;0.60;0.60;;;5.10;99.90;;;;;;4899013;29;20217;-85
2021/03/10 20:39:40;;;;;;;0.60;0.60;;;5.30;99.90;;;;;;4898599;29;20776;-86
2021/03/10 20:42:07;;;;;;;0.50;0.50;;;5.10;99.90;;;;;;4898580;29;20224;-86
2021/03/10 20:44:34;;;;;;;0.60;0.60;;;5.10;99.90;;;;;;4899249;29;20875;-85
2021/03/10 20:47:00;;;;;;;0.60;0.60;;;5.30;99.90;;;;;;4898286;29;20206;-86
2021/03/10 20:49:30;;;;;;;0.60;0.60;;;6.30;99.90;;;;;;4895943;29;20206;-88
2021/03/10 20:51:57;;;;;;;0.60;0.60;;;5.20;99.90;;;;;;4898353;29;20269;-86